createdAt,value
2022-07-29T00:01:33.127Z,97161.34
2022-07-29T00:04:01.495Z,97151.03
2022-07-29T00:06:29.997Z,97153.91
2022-07-29T00:08:58.272Z,97154.13
2022-07-29T00:11:27.968Z,97148.34
2022-07-29T00:13:56.253Z,97143.38
2022-07-29T00:16:25.021Z,97138.22
2022-07-29T00:18:53.376Z,97137.59
2022-07-29T00:21:21.813Z,97134.91
2022-07-29T00:23:50.144Z,97134.69
2022-07-29T00:26:18.488Z,97126.03
2022-07-29T00:28:48.325Z,97126.44
2022-07-29T00:31:16.843Z,97117.97
2022-07-29T00:33:45.158Z,97115.28
2022-07-29T00:36:12.459Z,97113.00
2022-07-29T00:38:42.519Z,97109.09
2022-07-29T00:41:10.866Z,97105.38
2022-07-29T00:43:39.490Z,97099.38
2022-07-29T00:46:09.246Z,97095.88
2022-07-29T00:48:38.266Z,97079.78
2022-07-29T00:51:08.497Z,97078.72
2022-07-29T00:53:37.774Z,97075.63
2022-07-29T00:56:06.173Z,97075.00
2022-07-29T00:58:34.724Z,97057.06
2022-07-29T01:01:03.164Z,97043.03
2022-07-29T01:03:32.960Z,97036.81
2022-07-29T01:06:01.694Z,97049.63
2022-07-29T01:08:30.188Z,97036.41
2022-07-29T01:10:58.669Z,97022.31
2022-07-29T01:13:27.598Z,97023.13
2022-07-29T01:15:59.162Z,97018.41
2022-07-29T01:18:34.366Z,97014.88
2022-07-29T01:21:34.339Z,97031.63
2022-07-29T01:24:18.209Z,97033.25
2022-07-29T01:26:49.375Z,97045.22
2022-07-29T01:29:26.390Z,97041.50
2022-07-29T01:32:01.426Z,97034.91
2022-07-29T01:34:34.605Z,97025.22
2022-07-29T01:37:07.401Z,97018.59
2022-07-29T01:39:37.528Z,97039.06
2022-07-29T01:42:12.716Z,97059.91
2022-07-29T01:44:48.280Z,97057.44
2022-07-29T01:47:22.346Z,97034.97
2022-07-29T01:49:53.239Z,97049.16
2022-07-29T01:52:24.023Z,97051.25
2022-07-29T01:54:56.121Z,97044.63
2022-07-29T01:57:27.411Z,97054.53
2022-07-29T01:59:58.443Z,97042.75
2022-07-29T02:02:28.536Z,97023.97
2022-07-29T02:04:57.542Z,97026.06
2022-07-29T02:07:26.927Z,97015.91
2022-07-29T02:09:55.846Z,97004.81
2022-07-29T02:12:24.664Z,97003.16
2022-07-29T02:14:55.723Z,97019.44
2022-07-29T02:17:30.041Z,97004.81
2022-07-29T02:20:01.327Z,97002.75
2022-07-29T02:22:32.480Z,97000.88
2022-07-29T02:25:01.121Z,96982.50
2022-07-29T02:27:31.852Z,96997.78
2022-07-29T02:30:01.315Z,97000.25
2022-07-29T02:32:31.691Z,97004.81
2022-07-29T02:35:00.887Z,97010.19
2022-07-29T02:37:30.116Z,97013.50
2022-07-29T02:39:59.620Z,97022.78
2022-07-29T02:42:29.892Z,97017.03
2022-07-29T02:44:58.517Z,97016.41
2022-07-29T02:47:41.911Z,97021.56
2022-07-29T02:50:14.504Z,97023.00
2022-07-29T02:52:45.859Z,97030.44
2022-07-29T02:55:18.560Z,97022.16
2022-07-29T02:57:54.679Z,97037.25
2022-07-29T03:00:24.728Z,97037.03
2022-07-29T03:02:56.131Z,97039.09
2022-07-29T03:05:24.736Z,97056.03
2022-07-29T03:07:57.439Z,97056.66
2022-07-29T03:10:27.355Z,97067.19
2022-07-29T03:12:56.550Z,97064.91
2022-07-29T03:15:25.440Z,97068.84
2022-07-29T03:17:56.535Z,97078.56
2022-07-29T03:20:25.074Z,97076.50
2022-07-29T03:22:53.555Z,97090.75
2022-07-29T03:25:22.637Z,97086.63
2022-07-29T03:27:51.144Z,97090.13
2022-07-29T03:30:22.357Z,97086.41
2022-07-29T03:32:52.454Z,97089.09
2022-07-29T03:35:22.448Z,97090.94
2022-07-29T03:37:51.010Z,97091.78
2022-07-29T03:40:24.190Z,97085.16
2022-07-29T03:42:54.202Z,97081.03
2022-07-29T03:45:23.623Z,97088.47
2022-07-29T03:48:00.866Z,97089.72
2022-07-29T03:50:31.315Z,97087.25
2022-07-29T03:52:59.939Z,97088.88
2022-07-29T03:55:31.016Z,97086.63
2022-07-29T03:57:59.634Z,97088.69
2022-07-29T04:00:29.338Z,97078.16
2022-07-29T04:02:58.339Z,97075.66
2022-07-29T04:05:26.894Z,97081.44
2022-07-29T04:07:56.602Z,97072.56
2022-07-29T04:10:31.651Z,97080.41
2022-07-29T04:13:00.846Z,97076.28
2022-07-29T04:15:30.902Z,97075.06
2022-07-29T04:18:00.787Z,97085.59
2022-07-29T04:20:29.462Z,97087.84
2022-07-29T04:22:59.180Z,97091.38
2022-07-29T04:25:27.463Z,97083.09
2022-07-29T04:28:04.905Z,97079.19
2022-07-29T04:30:34.453Z,97081.88
2022-07-29T04:33:03.392Z,97087.66
2022-07-29T04:35:38.413Z,97082.22
2022-07-29T04:38:15.877Z,97076.66
2022-07-29T04:40:47.164Z,97083.03
2022-07-29T04:43:22.391Z,97088.81
2022-07-29T04:45:51.592Z,97086.56
2022-07-29T04:48:24.018Z,97091.28
2022-07-29T04:50:56.823Z,97099.72
2022-07-29T04:53:27.452Z,97096.44
2022-07-29T04:55:55.859Z,97088.19
2022-07-29T04:58:25.048Z,97090.84
2022-07-29T05:00:53.437Z,97091.25
2022-07-29T05:03:21.821Z,97096.63
2022-07-29T05:05:50.167Z,97095.34
2022-07-29T05:08:18.591Z,97091.19
2022-07-29T05:10:48.985Z,97085.47
2022-07-29T05:13:17.568Z,97085.63
2022-07-29T05:15:45.992Z,97092.84
2022-07-29T05:18:15.056Z,97086.88
2022-07-29T05:20:43.693Z,97081.69
2022-07-29T05:23:13.637Z,97082.53
2022-07-29T05:25:43.454Z,97089.72
2022-07-29T05:28:15.125Z,97083.34
2022-07-29T05:30:45.737Z,97078.41
2022-07-29T05:33:34.664Z,97090.97
2022-07-29T05:36:02.745Z,97093.84
2022-07-29T05:38:31.631Z,97096.94
2022-07-29T05:41:00.858Z,97094.03
2022-07-29T05:43:31.012Z,97087.00
2022-07-29T05:46:00.278Z,97089.06
2022-07-29T05:48:29.300Z,97094.22
2022-07-29T05:50:58.197Z,97093.19
2022-07-29T05:53:26.750Z,97095.25
2022-07-29T05:55:55.663Z,97097.94
2022-07-29T05:58:24.335Z,97095.88
2022-07-29T06:00:54.974Z,97100.41
2022-07-29T06:03:23.540Z,97104.31
2022-07-29T06:05:52.388Z,97108.88
2022-07-29T06:08:21.231Z,97110.13
2022-07-29T06:10:49.897Z,97108.50
2022-07-29T06:13:18.594Z,97116.09
2022-07-29T06:15:47.312Z,97100.63
2022-07-29T06:18:17.344Z,97103.13
2022-07-29T06:20:46.197Z,97109.09
2022-07-29T06:23:14.716Z,97106.41
2022-07-29T06:25:43.492Z,97103.13
2022-07-29T06:28:12.163Z,97107.25
2022-07-29T06:30:41.315Z,97098.78
2022-07-29T06:33:10.090Z,97103.53
2022-07-29T06:35:41.983Z,97100.41
2022-07-29T06:38:30.122Z,97102.94
2022-07-29T06:41:03.938Z,97097.56
2022-07-29T06:43:35.045Z,97096.56
2022-07-29T06:46:05.259Z,97101.09
2022-07-29T06:48:34.639Z,97088.72
2022-07-29T06:51:04.937Z,97102.56
2022-07-29T06:53:34.331Z,97099.25
2022-07-29T06:56:03.428Z,97103.97
2022-07-29T06:58:32.330Z,97098.22
2022-07-29T07:01:03.578Z,97106.72
2022-07-29T07:03:32.228Z,97098.28
2022-07-29T07:06:00.960Z,97099.50
2022-07-29T07:08:30.866Z,97103.16
2022-07-29T07:10:59.563Z,97098.88
2022-07-29T07:13:29.068Z,97112.50
2022-07-29T07:15:57.523Z,97107.59
2022-07-29T07:18:26.155Z,97112.31
2022-07-29T07:20:54.684Z,97110.22
2022-07-29T07:23:23.289Z,97111.03
2022-07-29T07:25:53.220Z,97116.84
2022-07-29T07:28:25.056Z,97111.91
2022-07-29T07:30:53.963Z,97099.56
2022-07-29T07:33:22.602Z,97104.28
2022-07-29T07:35:52.078Z,97107.38
2022-07-29T07:38:21.077Z,97102.81
2022-07-29T07:40:49.585Z,97103.25
2022-07-29T07:43:19.710Z,97106.56
2022-07-29T07:45:48.428Z,97104.47
2022-07-29T07:48:16.923Z,97103.25
2022-07-29T07:50:48.606Z,97103.03
2022-07-29T07:53:17.318Z,97110.69
2022-07-29T07:58:37.472Z,97110.69
2022-07-29T08:01:06.313Z,97106.16
2022-07-29T08:03:35.155Z,97113.59
2022-07-29T08:06:03.911Z,97114.84
2022-07-29T08:08:32.627Z,97111.09
2022-07-29T08:11:09.151Z,97109.22
2022-07-29T08:14:06.570Z,97109.03
2022-07-29T08:16:36.360Z,97094.81
2022-07-29T08:19:04.894Z,97090.47
2022-07-29T08:21:33.331Z,97084.69
2022-07-29T08:24:15.640Z,97093.53
2022-07-29T08:26:44.176Z,97085.25
2022-07-29T08:29:15.954Z,97093.38
2022-07-29T08:31:48.142Z,97089.03
2022-07-29T08:34:16.686Z,97095.00
2022-07-29T08:36:45.032Z,97097.91
2022-07-29T08:39:19.177Z,97102.63
2022-07-29T08:41:57.186Z,97111.94
2022-07-29T08:44:30.426Z,97106.56
2022-07-29T08:50:46.386Z,97110.69
2022-07-29T08:53:16.472Z,97116.06
2022-07-29T08:55:46.097Z,97114.66
2022-07-29T08:58:15.693Z,97117.38
2022-07-29T09:00:46.275Z,97102.09
2022-07-29T09:03:19.181Z,97109.72
2022-07-29T09:05:48.526Z,97111.97
2022-07-29T09:08:17.735Z,97110.31
2022-07-29T09:10:46.811Z,97112.56
2022-07-29T09:13:15.086Z,97115.47
2022-07-29T09:15:43.520Z,97109.09
2022-07-29T09:18:19.580Z,97106.59
2022-07-29T09:21:17.860Z,97094.00
2022-07-29T09:24:01.818Z,97095.88
2022-07-29T09:26:30.965Z,97094.81
2022-07-29T09:29:00.659Z,97086.81
2022-07-29T09:31:35.852Z,97090.91
2022-07-29T09:34:05.130Z,97093.63
2022-07-29T09:36:40.942Z,97091.38
2022-07-29T09:39:09.467Z,97086.19
2022-07-29T09:41:48.843Z,97081.66
2022-07-29T09:44:17.920Z,97074.81
2022-07-29T09:47:07.048Z,97087.03
2022-07-29T09:49:36.161Z,97082.63
2022-07-29T09:52:12.106Z,97085.09
2022-07-29T09:54:40.506Z,97080.13
2022-07-29T09:57:13.342Z,97082.00
2022-07-29T09:59:58.015Z,97081.38
2022-07-29T10:02:30.787Z,97088.38
2022-07-29T10:04:59.270Z,97091.69
2022-07-29T10:07:45.180Z,97071.84
2022-07-29T10:10:20.915Z,97076.63
2022-07-29T10:12:54.830Z,97075.56
2022-07-29T10:15:24.699Z,97080.13
2022-07-29T10:17:53.891Z,97073.09
2022-07-29T10:20:22.948Z,97076.19
2022-07-29T10:22:54.089Z,97080.94
2022-07-29T10:25:27.121Z,97070.00
2022-07-29T10:27:56.002Z,97067.09
2022-07-29T10:30:26.231Z,97077.84
2022-07-29T10:33:17.691Z,97076.78
2022-07-29T10:35:53.745Z,97073.44
2022-07-29T10:38:48.282Z,97071.81
2022-07-29T10:41:43.656Z,97063.91
2022-07-29T10:44:19.316Z,97066.78
2022-07-29T10:46:48.898Z,97071.53
2022-07-29T10:49:18.474Z,97067.03
2022-07-29T10:51:55.843Z,97068.22
2022-07-29T10:54:50.959Z,97063.34
2022-07-29T10:57:53.926Z,97056.25
2022-07-29T11:00:34.082Z,97058.44
2022-07-29T11:03:04.559Z,97057.75
2022-07-29T11:05:55.356Z,97051.97
2022-07-29T11:08:27.761Z,97059.19
2022-07-29T11:11:33.525Z,97065.38
2022-07-29T11:14:03.369Z,97060.16
2022-07-29T11:17:06.297Z,97045.69
2022-07-29T11:19:37.195Z,97043.31
2022-07-29T11:22:10.825Z,97051.50
2022-07-29T11:24:39.544Z,97042.78
2022-07-29T11:27:23.068Z,97038.22
2022-07-29T11:30:07.025Z,97045.97
2022-07-29T11:32:38.994Z,97033.97
2022-07-29T11:35:27.725Z,97042.84
2022-07-29T11:38:28.375Z,97027.28
2022-07-29T11:41:28.674Z,97020.09
2022-07-29T11:43:59.505Z,97021.25
2022-07-29T11:46:48.063Z,97020.13
2022-07-29T11:49:22.113Z,97031.03
2022-07-29T11:52:03.837Z,97027.72
2022-07-29T11:54:38.874Z,97034.31
2022-07-29T11:57:36.397Z,97028.94
2022-07-29T12:03:00.270Z,97023.59
2022-07-29T12:05:48.254Z,97022.44
2022-07-29T12:08:22.774Z,97021.41
2022-07-29T12:10:52.452Z,97023.94
2022-07-29T12:13:23.038Z,97018.47
2022-07-29T12:16:07.541Z,97015.41
2022-07-29T12:18:35.989Z,97015.25
2022-07-29T12:21:05.792Z,97008.34
2022-07-29T12:23:35.604Z,97014.91
2022-07-29T12:26:07.691Z,97022.66
2022-07-29T12:28:40.274Z,97016.84
2022-07-29T12:31:41.740Z,97025.16
2022-07-29T12:34:03.973Z,97011.88
2022-07-29T12:36:32.529Z,97015.19
2022-07-29T12:39:01.111Z,97013.75
2022-07-29T12:41:29.910Z,97016.38
2022-07-29T12:43:58.513Z,97007.78
2022-07-29T12:46:28.458Z,96997.06
2022-07-29T12:48:57.726Z,96997.16
2022-07-29T12:51:33.959Z,96998.34
2022-07-29T12:54:07.873Z,96994.16
2022-07-29T12:56:44.991Z,96986.97
2022-07-29T12:59:15.647Z,96992.81
2022-07-29T13:01:45.574Z,96991.09
2022-07-29T13:04:26.283Z,96991.59
2022-07-29T13:07:00.780Z,96988.63
2022-07-29T13:09:39.196Z,96989.88
2022-07-29T13:12:09.299Z,96991.97
2022-07-29T13:14:39.854Z,96996.91
2022-07-29T13:17:11.616Z,96994.97
2022-07-29T13:19:42.270Z,96999.31
2022-07-29T13:22:11.332Z,97001.63
2022-07-29T13:24:52.743Z,97000.81
2022-07-29T13:27:22.429Z,96999.81
2022-07-29T13:29:53.424Z,97001.13
2022-07-29T13:32:28.231Z,96997.09
2022-07-29T13:34:57.631Z,96998.81
2022-07-29T13:37:26.880Z,96992.72
2022-07-29T13:39:56.837Z,96994.78
2022-07-29T13:42:25.744Z,96994.41
2022-07-29T13:44:54.705Z,96987.38
2022-07-29T13:47:32.466Z,96981.63
2022-07-29T13:50:02.187Z,96973.25
2022-07-29T13:52:30.662Z,96983.16
2022-07-29T13:54:59.223Z,96983.75
2022-07-29T13:57:27.563Z,96978.81
2022-07-29T13:59:55.911Z,96976.19
2022-07-29T14:02:26.365Z,96977.97
2022-07-29T14:04:55.504Z,96976.00
2022-07-29T14:07:24.357Z,96974.25
2022-07-29T14:09:52.892Z,96969.72
2022-07-29T14:12:22.042Z,96983.41
2022-07-29T14:14:51.076Z,96990.25
2022-07-29T14:17:19.525Z,96978.78
2022-07-29T14:19:49.225Z,96972.09
2022-07-29T14:22:19.856Z,96966.59
2022-07-29T14:24:50.586Z,96963.41
2022-07-29T14:27:20.007Z,96969.28
2022-07-29T14:30:07.654Z,96964.56
2022-07-29T14:32:35.976Z,96969.34
2022-07-29T14:35:06.465Z,96972.63
2022-07-29T14:37:39.878Z,96967.13
2022-07-29T14:40:10.482Z,96974.34
2022-07-29T14:42:39.853Z,96980.88
2022-07-29T14:45:09.669Z,96991.41
2022-07-29T14:47:39.020Z,96991.81
2022-07-29T14:50:11.239Z,96992.63
2022-07-29T14:52:41.477Z,97000.97
2022-07-29T14:55:19.359Z,97010.41
2022-07-29T14:57:49.105Z,97019.63
2022-07-29T15:00:18.078Z,97013.84
2022-07-29T15:03:01.495Z,97007.34
2022-07-29T15:05:32.361Z,97013.88
2022-07-29T15:08:01.261Z,97003.94
2022-07-29T15:10:29.903Z,97007.94
2022-07-29T15:12:58.376Z,97005.16
2022-07-29T15:15:26.970Z,97001.03
2022-07-29T15:17:55.453Z,97005.91
2022-07-29T15:20:26.135Z,97007.06
2022-07-29T15:22:56.831Z,97013.94
2022-07-29T15:25:25.512Z,97007.13
2022-07-29T15:28:00.962Z,97008.53
2022-07-29T15:30:33.385Z,97012.88
2022-07-29T15:33:03.854Z,97008.72
2022-07-29T15:35:32.285Z,97014.91
2022-07-29T15:38:02.142Z,97007.50
2022-07-29T15:40:30.552Z,97018.47
2022-07-29T15:43:01.708Z,97018.53
2022-07-29T15:45:32.016Z,97023.88
2022-07-29T15:48:01.428Z,97043.34
2022-07-29T15:50:29.787Z,97027.69
2022-07-29T15:52:58.091Z,97030.75
2022-07-29T15:55:27.986Z,97033.53
2022-07-29T15:58:00.488Z,97031.47
2022-07-29T16:00:29.312Z,97026.50
2022-07-29T16:02:57.771Z,97033.88
2022-07-29T16:05:26.446Z,97029.72
2022-07-29T16:07:54.792Z,97032.41
2022-07-29T16:10:23.335Z,97036.19
2022-07-29T16:12:53.128Z,97033.81
2022-07-29T16:15:21.587Z,97023.81
2022-07-29T16:17:50.416Z,97044.31
2022-07-29T16:20:18.827Z,97046.56
2022-07-29T16:22:47.141Z,97051.72
2022-07-29T16:25:15.454Z,97054.41
2022-07-29T16:27:43.755Z,97055.69
2022-07-29T16:30:13.951Z,97060.25
2022-07-29T16:32:42.372Z,97066.44
2022-07-29T16:35:11.081Z,97061.06
2022-07-29T16:37:39.494Z,97067.50
2022-07-29T16:40:11.487Z,97064.41
2022-07-29T16:42:48.023Z,97075.59
2022-07-29T16:45:19.869Z,97077.06
2022-07-29T16:47:49.963Z,97080.03
2022-07-29T16:50:18.517Z,97082.72
2022-07-29T16:52:46.838Z,97092.97
2022-07-29T16:55:15.312Z,97087.34
2022-07-29T16:57:43.841Z,97089.00
2022-07-29T17:00:14.360Z,97086.69
2022-07-29T17:02:44.207Z,97092.91
2022-07-29T17:05:13.380Z,97101.19
2022-07-29T17:07:41.929Z,97097.28
2022-07-29T17:10:11.299Z,97102.66
2022-07-29T17:12:41.042Z,97082.59
2022-07-29T17:15:11.214Z,97088.38
2022-07-29T17:17:55.134Z,97093.97
2022-07-29T17:20:27.302Z,97099.75
2022-07-29T17:22:55.849Z,97091.91
2022-07-29T17:25:24.818Z,97092.13
2022-07-29T17:27:57.536Z,97096.06
2022-07-29T17:30:28.768Z,97101.63
2022-07-29T17:32:57.282Z,97105.16
2022-07-29T17:35:53.423Z,97102.47
2022-07-29T17:38:21.755Z,97106.22
2022-07-29T17:40:50.112Z,97115.31
2022-07-29T17:43:18.443Z,97115.13
2022-07-29T17:45:50.287Z,97117.13
2022-07-29T17:48:19.854Z,97122.91
2022-07-29T17:50:49.979Z,97111.97
2022-07-29T17:53:18.508Z,97117.94
2022-07-29T17:55:48.650Z,97110.06
2022-07-29T17:58:17.635Z,97108.63
2022-07-29T18:00:46.061Z,97121.25
2022-07-29T18:03:14.672Z,97126.38
2022-07-29T18:05:43.367Z,97130.53
2022-07-29T18:08:14.192Z,97139.59
2022-07-29T18:10:42.512Z,97141.22
2022-07-29T18:13:12.544Z,97146.19
2022-07-29T18:15:41.313Z,97153.19
2022-07-29T18:18:10.018Z,97154.44
2022-07-29T18:20:38.547Z,97154.19
2022-07-29T18:23:07.009Z,97161.66
2022-07-29T18:25:36.839Z,97163.72
2022-07-29T18:28:05.688Z,97163.09
2022-07-29T18:30:36.725Z,97165.16
2022-07-29T18:33:20.750Z,97170.09
2022-07-29T18:35:51.786Z,97178.78
2022-07-29T18:38:21.814Z,97179.44
2022-07-29T18:40:51.747Z,97187.06
2022-07-29T18:43:20.096Z,97182.50
2022-07-29T18:45:49.646Z,97182.13
2022-07-29T18:48:18.753Z,97184.59
2022-07-29T18:50:47.105Z,97196.56
2022-07-29T18:53:15.476Z,97194.50
2022-07-29T18:55:44.049Z,97192.81
2022-07-29T18:58:13.726Z,97209.53
2022-07-29T19:00:42.175Z,97209.94
2022-07-29T19:03:11.219Z,97209.94
2022-07-29T19:05:39.875Z,97221.91
2022-07-29T19:08:08.254Z,97221.91
2022-07-29T19:10:36.595Z,97228.06
2022-07-29T19:13:05.388Z,97238.53
2022-07-29T19:15:35.233Z,97227.69
2022-07-29T19:18:04.418Z,97239.88
2022-07-29T19:20:32.748Z,97245.59
2022-07-29T19:23:01.115Z,97240.25
2022-07-29T19:25:29.506Z,97245.38
2022-07-29T19:27:58.507Z,97243.25
2022-07-29T19:30:27.607Z,97257.91
2022-07-29T19:32:57.330Z,97259.19
2022-07-29T19:35:28.114Z,97260.47
2022-07-29T19:37:57.101Z,97267.09
2022-07-29T19:40:26.692Z,97267.25
2022-07-29T19:42:55.513Z,97270.31
2022-07-29T19:45:25.712Z,97277.13
2022-07-29T19:47:59.052Z,97277.19
2022-07-29T19:50:30.799Z,97277.19
2022-07-29T19:52:59.530Z,97272.84
2022-07-29T19:55:28.086Z,97274.31
2022-07-29T19:57:56.666Z,97274.50
2022-07-29T20:00:25.914Z,97267.69
2022-07-29T20:02:54.394Z,97271.00
2022-07-29T20:05:27.864Z,97280.50
2022-07-29T20:07:58.636Z,97278.75
2022-07-29T20:10:27.095Z,97284.19
2022-07-29T20:12:55.679Z,97284.22
2022-07-29T20:15:24.553Z,97282.78
2022-07-29T20:17:57.173Z,97283.84
2022-07-29T20:20:26.283Z,97287.13
2022-07-29T20:22:54.877Z,97287.53
2022-07-29T20:25:24.947Z,97289.41
2022-07-29T20:27:54.256Z,97291.88
2022-07-29T20:30:23.351Z,97294.75
2022-07-29T20:32:51.807Z,97289.59
2022-07-29T20:35:22.290Z,97292.69
2022-07-29T20:37:55.572Z,97292.47
2022-07-29T20:40:27.228Z,97294.75
2022-07-29T20:42:55.890Z,97299.94
2022-07-29T20:45:24.814Z,97292.50
2022-07-29T20:47:53.455Z,97297.66
2022-07-29T20:50:24.116Z,97299.94
2022-07-29T20:52:53.234Z,97296.00
2022-07-29T20:55:22.118Z,97293.94
2022-07-29T20:57:51.940Z,97303.63
2022-07-29T21:00:20.323Z,97290.03
2022-07-29T21:02:48.705Z,97298.72
2022-07-29T21:05:17.185Z,97300.38
2022-07-29T21:07:45.553Z,97303.84
2022-07-29T21:10:14.273Z,97295.59
2022-07-29T21:12:43.109Z,97309.19
2022-07-29T21:15:14.083Z,97301.38
2022-07-29T21:17:47.517Z,97298.72
2022-07-29T21:20:16.609Z,97312.50
2022-07-29T21:22:45.784Z,97318.28
2022-07-29T21:25:14.312Z,97315.84
2022-07-29T21:28:00.201Z,97313.34
2022-07-29T21:30:29.950Z,97316.47
2022-07-29T21:32:58.354Z,97313.78
2022-07-29T21:35:31.380Z,97312.31
2022-07-29T21:38:19.235Z,97303.91
2022-07-29T21:40:49.429Z,97315.66
2022-07-29T21:43:18.327Z,97303.91
2022-07-29T21:45:50.224Z,97315.66
2022-07-29T21:48:19.884Z,97318.75
2022-07-29T21:50:48.916Z,97311.72
2022-07-29T21:53:17.488Z,97308.81
2022-07-29T21:55:51.493Z,97300.75
2022-07-29T21:58:22.931Z,97289.00
2022-07-29T22:00:52.898Z,97288.19
2022-07-29T22:03:21.353Z,97290.50
2022-07-29T22:05:49.675Z,97288.63
2022-07-29T22:08:17.999Z,97287.19
2022-07-29T22:10:46.480Z,97284.06
2022-07-29T22:13:14.859Z,97272.94
2022-07-29T22:15:47.071Z,97274.38
2022-07-29T22:18:21.010Z,97271.72
2022-07-29T22:20:49.900Z,97260.97
2022-07-29T22:23:18.289Z,97259.94
2022-07-29T22:25:46.748Z,97257.66
2022-07-29T22:28:15.197Z,97246.94
2022-07-29T22:30:43.620Z,97244.25
2022-07-29T22:33:16.912Z,97248.59
2022-07-29T22:35:48.554Z,97248.59
2022-07-29T22:38:17.647Z,97245.91
2022-07-29T22:40:46.903Z,97249.63
2022-07-29T22:43:17.218Z,97238.06
2022-07-29T22:45:45.668Z,97250.00
2022-07-29T22:48:14.091Z,97245.66
2022-07-29T22:50:42.712Z,97241.13
2022-07-29T22:53:12.794Z,97251.88
2022-07-29T22:55:41.341Z,97258.06
2022-07-29T22:58:09.828Z,97253.53
2022-07-29T23:00:38.694Z,97245.66
2022-07-29T23:03:07.083Z,97245.03
2022-07-29T23:05:35.676Z,97243.00
2022-07-29T23:08:04.288Z,97242.38
2022-07-29T23:10:34.073Z,97236.38
2022-07-29T23:13:02.490Z,97241.09
2022-07-29T23:15:30.940Z,97224.19
2022-07-29T23:17:59.266Z,97225.22
2022-07-29T23:20:27.691Z,97228.91
2022-07-29T23:22:56.242Z,97227.28
2022-07-29T23:25:24.718Z,97223.75
2022-07-29T23:27:54.434Z,97228.28
2022-07-29T23:30:22.844Z,97227.28
2022-07-29T23:32:51.309Z,97223.56
2022-07-29T23:35:19.948Z,97218.19
2022-07-29T23:37:48.344Z,97220.06
2022-07-29T23:40:16.952Z,97213.47
2022-07-29T23:42:45.357Z,97211.81
2022-07-29T23:45:15.140Z,97216.34
2022-07-29T23:47:43.870Z,97216.31
2022-07-29T23:50:13.167Z,97215.47
2022-07-29T23:52:42.007Z,97210.75
2022-07-29T23:55:37.780Z,97204.56
2022-07-29T23:57:59.951Z,97206.41
